Time;durP1;ratioP1;P1;durP2;ratioP2;P2;SDS_P1;SDS_P2;PMS_P1;PMS_P2;Temp;Humidity;BMP_temperature;BMP_pressure;BME280_temperature;BME280_humidity;BME280_pressure;Samples;Min_cycle;Max_cycle;Signal;HPM_P1;HPM_P2
2022/10/24 00:00:28;;;;;;;2.63;2.03;;;14.70;99.90;;;;;;5034974;28;20601;-51
2022/10/24 00:02:55;;;;;;;2.63;1.70;;;14.60;99.90;;;;;;5044072;28;20230;-50
2022/10/24 00:05:22;;;;;;;3.40;1.73;;;14.60;99.90;;;;;;5038182;28;20204;-54
2022/10/24 00:07:49;;;;;;;4.57;1.73;;;14.60;99.90;;;;;;5035346;28;20199;-55
2022/10/24 00:10:17;;;;;;;2.20;1.70;;;14.60;99.90;;;;;;5042940;28;20821;-51
2022/10/24 00:12:44;;;;;;;4.47;2.30;;;14.50;99.90;;;;;;5021530;28;20222;-54
2022/10/24 00:15:11;;;;;;;2.90;2.47;;;14.60;99.90;;;;;;5044956;28;20204;-48
2022/10/24 00:17:38;;;;;;;7.00;1.97;;;14.60;99.90;;;;;;5037073;28;20203;-52
2022/10/24 00:20:06;;;;;;;3.20;1.90;;;14.50;99.90;;;;;;5046401;28;20230;-51
2022/10/24 00:22:33;;;;;;;3.07;2.20;;;14.50;99.90;;;;;;5041941;28;20238;-50
2022/10/24 00:25:00;;;;;;;5.37;2.03;;;14.50;99.90;;;;;;5045396;28;20210;-50
2022/10/24 00:27:28;;;;;;;3.60;1.90;;;14.50;99.90;;;;;;5027092;28;20574;-54
2022/10/24 00:29:55;;;;;;;2.50;2.30;;;14.50;99.90;;;;;;5041797;28;20203;-53
2022/10/24 00:32:22;;;;;;;4.93;2.60;;;14.50;99.90;;;;;;5043592;28;20723;-52
2022/10/24 00:34:48;;;;;;;3.13;2.23;;;14.40;99.90;;;;;;5039040;28;20928;-50
2022/10/24 00:37:15;;;;;;;3.67;2.20;;;14.40;99.90;;;;;;5045465;28;20203;-53
2022/10/24 00:39:41;;;;;;;3.93;2.23;;;14.50;99.90;;;;;;5042408;28;20211;-50
2022/10/24 00:42:08;;;;;;;4.27;2.63;;;14.40;99.90;;;;;;5040940;28;20223;-52
2022/10/24 00:44:39;;;;;;;3.63;2.43;;;14.40;99.90;;;;;;5024144;28;20742;-51
2022/10/24 00:47:09;;;;;;;3.93;2.30;;;14.40;99.90;;;;;;5045827;28;20703;-50
2022/10/24 00:49:44;;;;;;;3.13;2.20;;;14.40;99.90;;;;;;5036674;28;20918;-51
2022/10/24 00:52:12;;;;;;;4.63;2.20;;;14.30;99.90;;;;;;5045744;28;20719;-51
2022/10/24 00:54:40;;;;;;;3.97;2.63;;;14.30;99.90;;;;;;5040603;28;20203;-50
2022/10/24 00:57:12;;;;;;;4.97;2.07;;;14.30;99.90;;;;;;5045821;28;20209;-50
2022/10/24 00:59:42;;;;;;;4.77;2.57;;;14.30;99.90;;;;;;5025207;28;20211;-52
2022/10/24 01:02:10;;;;;;;3.50;2.50;;;14.30;99.90;;;;;;5044568;28;20594;-55
2022/10/24 01:04:36;;;;;;;4.03;2.33;;;14.30;99.90;;;;;;5035396;28;20834;-51
2022/10/24 01:07:16;;;;;;;5.80;2.27;;;14.30;99.90;;;;;;5045113;28;20199;-50
2022/10/24 01:10:08;;;;;;;2.27;1.90;;;14.20;99.90;;;;;;5042154;28;20195;-53
2022/10/24 01:12:46;;;;;;;3.73;2.17;;;14.20;99.90;;;;;;5041197;28;20212;-53
2022/10/24 01:15:20;;;;;;;3.70;2.20;;;14.20;99.90;;;;;;5021951;28;20207;-51
2022/10/24 01:17:56;;;;;;;4.07;2.37;;;14.20;99.90;;;;;;5036622;28;20190;-48
2022/10/24 01:20:50;;;;;;;3.70;1.97;;;14.20;99.90;;;;;;5032747;28;20214;-52
2022/10/24 01:23:53;;;;;;;3.60;2.03;;;14.20;99.90;;;;;;5039629;28;20215;-54
2022/10/24 01:26:54;;;;;;;5.43;2.10;;;14.10;99.90;;;;;;5028862;28;20211;-54
2022/10/24 01:29:42;;;;;;;3.63;2.40;;;14.00;99.90;;;;;;5032476;28;20590;-53
2022/10/24 01:32:16;;;;;;;2.43;2.20;;;14.00;99.90;;;;;;5043955;28;20223;-52
2022/10/24 01:34:47;;;;;;;2.83;2.30;;;14.00;99.90;;;;;;5040517;28;20195;-53
2022/10/24 01:37:21;;;;;;;4.17;2.30;;;14.00;99.90;;;;;;5035579;28;20199;-55
2022/10/24 01:39:52;;;;;;;4.07;1.97;;;14.00;99.90;;;;;;5031345;28;20224;-52
2022/10/24 01:42:22;;;;;;;4.00;2.20;;;13.90;99.90;;;;;;5049476;28;20588;-54
2022/10/24 01:44:55;;;;;;;3.57;2.43;;;13.90;99.90;;;;;;5033662;28;20196;-51
2022/10/24 01:47:24;;;;;;;2.53;1.83;;;13.90;99.90;;;;;;5020235;28;20207;-53
2022/10/24 01:49:56;;;;;;;2.70;2.47;;;13.90;99.90;;;;;;5036643;28;20195;-51
2022/10/24 01:52:24;;;;;;;6.23;2.27;;;13.90;99.90;;;;;;5030088;28;20230;-50
2022/10/24 01:54:52;;;;;;;3.40;2.10;;;13.90;99.90;;;;;;5032705;28;20187;-51
2022/10/24 01:57:19;;;;;;;3.57;1.87;;;13.90;99.90;;;;;;5043453;28;20274;-53
2022/10/24 01:59:48;;;;;;;3.87;2.40;;;13.90;99.90;;;;;;5037123;28;20228;-50
2022/10/24 02:02:21;;;;;;;3.27;2.43;;;13.80;99.90;;;;;;5026544;28;20223;-55
2022/10/24 02:04:55;;;;;;;2.83;2.07;;;13.80;99.90;;;;;;5039754;28;20219;-51
2022/10/24 02:07:24;;;;;;;2.23;1.90;;;13.80;99.90;;;;;;5035373;28;20207;-55
2022/10/24 02:09:56;;;;;;;3.23;2.40;;;13.80;99.90;;;;;;5039897;28;20202;-53
2022/10/24 02:12:26;;;;;;;3.97;2.10;;;13.70;99.90;;;;;;5042195;28;20571;-54
2022/10/24 02:14:57;;;;;;;3.93;2.17;;;13.70;99.90;;;;;;5035923;28;20199;-51
2022/10/24 02:17:26;;;;;;;3.77;2.00;;;13.70;99.90;;;;;;5018656;28;20215;-53
2022/10/24 02:19:54;;;;;;;4.10;2.00;;;13.70;99.90;;;;;;5034044;28;20251;-51
2022/10/24 02:22:28;;;;;;;2.43;2.20;;;13.70;99.90;;;;;;5035314;28;20227;-53
2022/10/24 02:25:00;;;;;;;1.93;1.80;;;13.60;99.90;;;;;;5034946;28;20210;-52
2022/10/24 02:27:34;;;;;;;5.60;2.30;;;13.60;99.90;;;;;;5041014;28;20211;-54
2022/10/24 02:30:05;;;;;;;3.17;1.80;;;13.60;99.90;;;;;;5042529;28;20211;-43
2022/10/24 02:32:38;;;;;;;2.00;1.80;;;13.60;99.90;;;;;;5023031;28;20230;-44
2022/10/24 02:35:07;;;;;;;5.07;2.13;;;13.60;99.90;;;;;;5040038;28;20226;-42
2022/10/24 02:37:39;;;;;;;3.70;2.23;;;13.60;99.90;;;;;;5031072;28;20235;-46
2022/10/24 02:40:09;;;;;;;5.20;2.43;;;13.50;99.90;;;;;;5036950;28;20230;-43
2022/10/24 02:42:38;;;;;;;5.00;2.27;;;13.50;99.90;;;;;;5039799;28;20207;-44
2022/10/24 02:45:08;;;;;;;2.63;2.17;;;13.50;99.90;;;;;;5042216;28;20205;-43
2022/10/24 02:47:40;;;;;;;3.07;2.00;;;13.50;99.90;;;;;;5023304;28;20211;-44
2022/10/24 02:50:08;;;;;;;2.97;2.23;;;13.50;99.90;;;;;;5043392;28;20281;-42
2022/10/24 02:52:36;;;;;;;6.23;2.33;;;13.40;99.90;;;;;;5033736;28;20219;-42
2022/10/24 02:55:04;;;;;;;10.87;2.80;;;13.40;99.90;;;;;;5031828;28;20690;-44
2022/10/24 02:57:31;;;;;;;3.70;2.37;;;13.40;99.90;;;;;;5033827;28;20203;-44
2022/10/24 02:59:58;;;;;;;3.33;2.13;;;13.30;99.90;;;;;;5043038;28;20219;-42
2022/10/24 03:02:26;;;;;;;4.03;2.13;;;13.30;99.90;;;;;;5041499;28;20688;-42
2022/10/24 03:04:54;;;;;;;5.73;2.23;;;13.30;99.90;;;;;;5018426;28;20303;-43
2022/10/24 03:07:21;;;;;;;5.43;2.00;;;13.20;99.90;;;;;;5037474;28;20200;-44
2022/10/24 03:09:48;;;;;;;4.10;2.07;;;13.30;99.90;;;;;;5035715;28;20203;-43
2022/10/24 03:12:16;;;;;;;4.00;2.10;;;13.30;99.90;;;;;;5041031;28;20241;-42
2022/10/24 03:14:43;;;;;;;2.90;2.20;;;13.30;99.90;;;;;;5038858;28;20257;-45
2022/10/24 03:17:10;;;;;;;2.10;1.90;;;13.30;99.90;;;;;;5037803;28;20200;-45
2022/10/24 03:19:38;;;;;;;3.93;2.27;;;13.30;99.90;;;;;;5022742;28;20902;-43
2022/10/24 03:22:06;;;;;;;3.17;2.00;;;13.30;99.90;;;;;;5042520;28;20288;-43
2022/10/24 03:24:33;;;;;;;3.23;2.30;;;13.30;99.90;;;;;;5033320;28;20289;-43
2022/10/24 03:27:00;;;;;;;2.50;2.10;;;13.30;99.90;;;;;;5043188;28;20199;-43
2022/10/24 03:29:27;;;;;;;3.67;1.90;;;13.30;99.90;;;;;;5039145;28;20683;-42
2022/10/24 03:31:54;;;;;;;3.07;2.13;;;13.30;99.90;;;;;;5036593;28;20700;-43
2022/10/24 03:34:21;;;;;;;3.30;2.03;;;13.30;99.90;;;;;;5040917;28;20209;-41
2022/10/24 03:36:48;;;;;;;2.97;2.10;;;13.30;99.90;;;;;;5024834;28;20943;-44
2022/10/24 03:39:16;;;;;;;2.50;1.90;;;13.30;99.90;;;;;;5028206;28;20199;-42
2022/10/24 03:41:42;;;;;;;5.80;2.50;;;13.20;99.90;;;;;;5037863;28;20211;-42
2022/10/24 03:44:09;;;;;;;2.97;2.33;;;13.20;99.90;;;;;;5035324;28;20638;-41
2022/10/24 03:46:36;;;;;;;4.03;3.00;;;13.20;99.90;;;;;;5033334;28;20199;-41
2022/10/24 03:49:03;;;;;;;3.63;2.40;;;13.20;99.90;;;;;;5038902;28;20200;-43
2022/10/24 03:51:30;;;;;;;4.10;2.50;;;13.20;99.90;;;;;;5014313;28;20219;-43
2022/10/24 03:53:57;;;;;;;3.00;1.93;;;13.20;99.90;;;;;;5030529;28;20203;-47
2022/10/24 03:56:25;;;;;;;3.27;2.93;;;13.20;99.90;;;;;;5032526;28;20203;-45
2022/10/24 03:58:52;;;;;;;5.53;2.43;;;13.20;99.90;;;;;;5027287;28;20200;-46
2022/10/24 04:01:19;;;;;;;4.93;2.43;;;13.20;99.90;;;;;;5027125;28;20211;-46
2022/10/24 04:03:47;;;;;;;3.47;2.37;;;13.20;99.90;;;;;;5033182;28;20270;-45
2022/10/24 04:06:14;;;;;;;9.17;2.60;;;13.20;99.90;;;;;;5030208;28;20203;-46
2022/10/24 04:08:41;;;;;;;2.93;2.60;;;13.20;99.90;;;;;;5023709;28;20207;-44
2022/10/24 04:11:08;;;;;;;9.27;2.33;;;13.20;99.90;;;;;;5033979;28;20207;-43
2022/10/24 04:13:37;;;;;;;5.13;2.10;;;13.20;99.90;;;;;;5029081;28;20203;-43
2022/10/24 04:16:03;;;;;;;3.90;2.27;;;13.10;99.90;;;;;;5035496;28;20195;-45
2022/10/24 04:18:30;;;;;;;5.20;2.43;;;13.20;99.90;;;;;;5030206;28;20657;-42
2022/10/24 04:20:57;;;;;;;2.50;2.13;;;13.20;99.90;;;;;;5029056;28;20218;-42
2022/10/24 04:23:24;;;;;;;3.67;2.47;;;13.10;99.90;;;;;;5019371;28;20226;-42
2022/10/24 04:25:51;;;;;;;2.97;2.50;;;13.10;99.90;;;;;;5032860;28;20207;-42
2022/10/24 04:28:17;;;;;;;4.53;2.10;;;13.10;99.90;;;;;;5036356;28;20191;-41
2022/10/24 04:30:46;;;;;;;3.40;2.40;;;13.10;99.90;;;;;;5040970;28;20238;-43
2022/10/24 04:33:13;;;;;;;5.30;2.30;;;13.10;99.90;;;;;;5040991;28;20206;-41
2022/10/24 04:35:39;;;;;;;2.70;2.00;;;13.00;99.90;;;;;;5031145;28;20212;-41
2022/10/24 04:38:06;;;;;;;4.50;2.60;;;13.00;99.90;;;;;;5024264;28;20226;-43
2022/10/24 04:40:33;;;;;;;3.10;2.67;;;13.00;99.90;;;;;;5038074;28;20207;-44
2022/10/24 04:43:00;;;;;;;5.07;2.80;;;13.00;99.90;;;;;;5038140;28;20306;-41
2022/10/24 04:45:26;;;;;;;3.60;2.30;;;13.00;99.90;;;;;;5041978;28;20191;-41
2022/10/24 04:47:55;;;;;;;5.07;2.63;;;13.00;99.90;;;;;;5035920;28;20202;-43
2022/10/24 04:50:21;;;;;;;5.63;2.87;;;13.00;99.90;;;;;;5040437;28;20200;-41
2022/10/24 04:52:48;;;;;;;7.57;3.00;;;12.90;99.90;;;;;;5035767;28;20220;-47
2022/10/24 04:55:15;;;;;;;7.13;2.60;;;13.00;99.90;;;;;;5028391;28;20211;-46
2022/10/24 04:57:42;;;;;;;4.57;3.00;;;12.90;99.90;;;;;;5031876;28;20216;-41
2022/10/24 05:00:10;;;;;;;4.57;3.20;;;12.90;99.90;;;;;;5044315;28;20207;-44
2022/10/24 05:02:36;;;;;;;5.70;2.60;;;12.90;99.90;;;;;;5043420;28;20230;-43
2022/10/24 05:05:06;;;;;;;4.40;2.73;;;12.90;99.90;;;;;;5042332;28;20494;-42
2022/10/24 05:07:33;;;;;;;5.37;2.57;;;12.90;99.90;;;;;;5036717;28;20195;-42
2022/10/24 05:09:59;;;;;;;6.67;3.00;;;12.90;99.90;;;;;;5020403;28;20288;-43
2022/10/24 05:12:26;;;;;;;4.87;3.30;;;12.90;99.90;;;;;;5031062;28;20223;-45
2022/10/24 05:14:52;;;;;;;3.60;2.70;;;12.90;99.90;;;;;;5035485;28;20270;-42
2022/10/24 05:17:19;;;;;;;3.60;2.67;;;12.90;99.90;;;;;;5044241;28;20206;-43
2022/10/24 05:19:47;;;;;;;3.67;2.33;;;12.90;99.90;;;;;;5040898;28;20198;-43
2022/10/24 05:22:15;;;;;;;5.23;2.73;;;12.90;99.90;;;;;;5036806;28;20218;-46
2022/10/24 05:24:42;;;;;;;6.73;2.73;;;12.90;99.90;;;;;;5022116;28;20211;-44
2022/10/24 05:27:08;;;;;;;5.10;3.20;;;12.80;99.90;;;;;;5040569;28;20207;-42
2022/10/24 05:29:36;;;;;;;7.33;2.93;;;12.90;99.90;;;;;;5032062;28;20567;-41
2022/10/24 05:32:02;;;;;;;5.17;2.97;;;12.80;99.90;;;;;;5043086;28;20246;-45
2022/10/24 05:34:29;;;;;;;4.80;3.13;;;12.90;99.90;;;;;;5042599;28;20215;-42
2022/10/24 05:36:57;;;;;;;7.10;2.80;;;12.90;99.90;;;;;;5041208;28;20195;-44
2022/10/24 05:39:25;;;;;;;4.53;2.73;;;12.90;99.90;;;;;;5028994;28;20234;-42
2022/10/24 05:41:51;;;;;;;8.37;2.70;;;12.90;99.90;;;;;;5027968;28;20219;-46
2022/10/24 05:44:18;;;;;;;4.33;2.93;;;12.90;99.90;;;;;;5031322;28;20204;-42
2022/10/24 05:46:45;;;;;;;6.03;2.70;;;12.90;99.90;;;;;;5041723;28;20203;-45
2022/10/24 05:49:13;;;;;;;6.03;3.20;;;12.80;99.90;;;;;;5042454;28;20199;-48
2022/10/24 05:51:40;;;;;;;6.00;2.57;;;12.80;99.90;;;;;;5029786;28;20236;-43
2022/10/24 05:54:07;;;;;;;4.93;2.60;;;12.80;99.90;;;;;;5032573;28;20679;-45
2022/10/24 05:56:36;;;;;;;3.00;2.47;;;12.80;99.90;;;;;;5014748;28;20979;-44
2022/10/24 05:59:03;;;;;;;7.10;2.77;;;12.80;99.90;;;;;;5038173;28;20210;-42
2022/10/24 06:01:30;;;;;;;3.33;2.70;;;12.80;99.90;;;;;;5033453;28;20246;-45
2022/10/24 06:03:57;;;;;;;3.53;2.30;;;12.80;99.90;;;;;;5039476;28;20207;-43
2022/10/24 06:06:24;;;;;;;5.37;3.10;;;12.80;99.90;;;;;;5022616;28;20237;-42
2022/10/24 06:08:51;;;;;;;6.30;2.53;;;12.80;99.90;;;;;;5038144;28;20203;-41
2022/10/24 06:11:19;;;;;;;5.03;2.60;;;12.70;99.90;;;;;;5029613;28;20553;-44
2022/10/24 06:13:47;;;;;;;5.50;3.13;;;12.70;99.90;;;;;;5037117;28;20218;-46
2022/10/24 06:16:13;;;;;;;5.77;2.70;;;12.70;99.90;;;;;;5028153;28;20195;-41
2022/10/24 06:18:41;;;;;;;4.70;2.83;;;12.70;99.90;;;;;;5033743;28;20207;-41
2022/10/24 06:21:09;;;;;;;5.93;2.70;;;12.70;99.90;;;;;;5035589;28;20258;-41
2022/10/24 06:23:36;;;;;;;5.87;2.57;;;12.70;99.90;;;;;;5036102;28;20195;-44
2022/10/24 06:26:08;;;;;;;7.13;2.50;;;12.70;99.90;;;;;;5028018;28;20250;-43
2022/10/24 06:28:35;;;;;;;7.07;2.50;;;12.80;99.90;;;;;;5027482;28;20218;-44
2022/10/24 06:31:04;;;;;;;4.43;2.77;;;12.80;99.90;;;;;;5028388;28;20298;-45
2022/10/24 06:33:31;;;;;;;9.10;2.67;;;12.90;99.90;;;;;;5042521;28;20579;-42
2022/10/24 06:35:59;;;;;;;4.67;2.27;;;12.90;99.90;;;;;;5039788;28;20679;-41
2022/10/24 06:38:26;;;;;;;8.10;2.93;;;13.00;99.90;;;;;;5041761;28;20196;-41
2022/10/24 06:40:53;;;;;;;7.13;2.60;;;13.10;99.90;;;;;;5032220;28;20212;-41
2022/10/24 06:43:20;;;;;;;5.47;3.07;;;13.20;99.90;;;;;;5021267;28;20241;-42
2022/10/24 06:45:47;;;;;;;6.57;3.00;;;13.20;99.90;;;;;;5038808;28;20199;-41
2022/10/24 06:48:15;;;;;;;6.20;3.10;;;13.20;99.90;;;;;;5031099;28;20196;-43
2022/10/24 06:50:42;;;;;;;4.80;2.83;;;13.30;99.90;;;;;;5014791;28;21119;-43
2022/10/24 06:53:10;;;;;;;5.13;2.33;;;13.30;99.90;;;;;;5035544;28;20194;-43
2022/10/24 06:55:38;;;;;;;5.07;2.40;;;13.30;99.90;;;;;;5030530;28;20735;-43
2022/10/24 06:58:06;;;;;;;7.00;2.80;;;13.30;99.90;;;;;;5012664;28;20207;-40
2022/10/24 07:00:33;;;;;;;6.90;2.30;;;13.40;99.90;;;;;;5038431;28;20257;-42
2022/10/24 07:02:59;;;;;;;7.60;2.40;;;13.40;99.90;;;;;;5026066;28;20226;-42
2022/10/24 07:05:27;;;;;;;6.37;2.47;;;13.40;99.90;;;;;;5024931;28;20194;-43
2022/10/24 07:07:54;;;;;;;7.63;3.20;;;13.50;99.90;;;;;;5038967;28;20743;-40
2022/10/24 07:10:21;;;;;;;4.03;2.50;;;13.50;99.90;;;;;;5022545;28;20215;-44
2022/10/24 07:12:48;;;;;;;6.63;2.70;;;13.60;99.90;;;;;;5030357;28;20220;-43
2022/10/24 07:15:15;;;;;;;3.37;2.30;;;13.60;99.90;;;;;;5018489;28;20211;-42
2022/10/24 07:17:44;;;;;;;4.33;2.87;;;13.60;99.90;;;;;;5019561;28;20199;-41
2022/10/24 07:20:12;;;;;;;5.17;2.60;;;13.70;99.90;;;;;;5033056;28;20925;-40
2022/10/24 07:22:41;;;;;;;4.60;2.50;;;13.70;99.90;;;;;;5024013;28;20215;-45
2022/10/24 07:25:09;;;;;;;4.03;2.40;;;13.70;99.90;;;;;;5031624;28;20213;-41
2022/10/24 07:27:36;;;;;;;5.23;2.40;;;13.80;99.90;;;;;;5036540;28;21494;-40
2022/10/24 07:30:02;;;;;;;11.40;2.50;;;13.90;99.90;;;;;;5014383;28;20199;-41
2022/10/24 07:32:29;;;;;;;6.30;3.23;;;14.00;99.90;;;;;;5025584;28;23423;-43
2022/10/24 07:34:56;;;;;;;4.00;2.50;;;14.00;99.90;;;;;;5028581;28;20211;-40
2022/10/24 07:37:23;;;;;;;6.77;2.60;;;14.10;99.90;;;;;;5024201;28;20207;-45
2022/10/24 07:39:51;;;;;;;4.73;2.10;;;14.10;99.90;;;;;;5038907;28;20613;-41
2022/10/24 07:42:18;;;;;;;5.77;3.00;;;14.10;99.90;;;;;;5031140;28;20235;-41
2022/10/24 07:44:46;;;;;;;5.10;2.70;;;14.20;99.90;;;;;;5022906;28;20297;-41
2022/10/24 07:47:13;;;;;;;4.73;2.53;;;14.20;99.90;;;;;;5033653;28;20183;-40
2022/10/24 07:49:41;;;;;;;5.07;2.30;;;14.30;99.90;;;;;;5043345;28;20207;-44
2022/10/24 07:52:07;;;;;;;5.63;2.47;;;14.30;99.90;;;;;;5029021;28;20525;-44
2022/10/24 07:54:34;;;;;;;6.57;2.53;;;14.40;99.90;;;;;;5036310;28;20269;-43
2022/10/24 07:57:02;;;;;;;3.53;2.40;;;14.40;99.90;;;;;;5031650;28;20207;-42
2022/10/24 07:59:29;;;;;;;7.20;3.20;;;14.50;99.90;;;;;;5039449;28;20214;-47
2022/10/24 08:01:56;;;;;;;5.27;2.17;;;14.60;99.90;;;;;;5016022;28;20218;-44
2022/10/24 08:04:23;;;;;;;2.97;2.30;;;14.60;99.90;;;;;;5031316;28;20195;-41
2022/10/24 08:06:49;;;;;;;7.67;2.97;;;14.70;99.90;;;;;;5040261;28;20203;-42
2022/10/24 08:09:17;;;;;;;7.37;2.63;;;14.80;99.90;;;;;;5032157;28;20199;-43
2022/10/24 08:11:43;;;;;;;7.67;3.07;;;14.80;99.90;;;;;;5041757;28;20294;-42
2022/10/24 08:14:11;;;;;;;7.33;2.63;;;14.90;99.90;;;;;;5026728;28;20200;-46
2022/10/24 08:16:38;;;;;;;5.23;2.40;;;15.00;99.90;;;;;;5029102;28;20207;-44
2022/10/24 08:19:05;;;;;;;7.00;2.17;;;15.10;99.90;;;;;;5035900;28;20269;-42
2022/10/24 08:21:32;;;;;;;4.30;2.47;;;15.10;99.90;;;;;;5039837;28;20763;-44
2022/10/24 08:23:59;;;;;;;3.33;2.10;;;15.20;99.90;;;;;;5033248;28;20277;-42
2022/10/24 08:26:26;;;;;;;3.93;2.13;;;15.20;99.90;;;;;;5038348;28;20892;-44
2022/10/24 08:28:54;;;;;;;2.83;2.10;;;15.30;99.90;;;;;;5030284;28;20199;-44
2022/10/24 08:31:24;;;;;;;4.37;2.00;;;15.40;99.90;;;;;;5035791;28;20207;-44
2022/10/24 08:33:52;;;;;;;2.70;2.00;;;15.40;99.90;;;;;;5020392;28;20203;-44
2022/10/24 08:36:23;;;;;;;8.23;2.30;;;15.40;99.90;;;;;;5030799;28;20535;-41
2022/10/24 08:38:49;;;;;;;10.03;2.70;;;15.50;99.90;;;;;;5034779;28;20455;-45
2022/10/24 08:41:24;;;;;;;3.97;2.27;;;15.50;99.90;;;;;;5029246;28;20223;-43
2022/10/24 08:43:52;;;;;;;5.53;2.50;;;15.50;99.90;;;;;;5031835;28;20293;-42
2022/10/24 08:46:34;;;;;;;3.90;2.30;;;15.60;99.90;;;;;;5036975;28;20215;-43
2022/10/24 08:49:06;;;;;;;5.60;2.40;;;15.60;99.90;;;;;;5022555;28;20238;-46
2022/10/24 08:51:40;;;;;;;6.63;2.37;;;15.70;99.90;;;;;;5026908;28;20227;-44
2022/10/24 08:54:12;;;;;;;5.43;2.63;;;15.70;99.90;;;;;;5036979;28;20198;-42
2022/10/24 08:56:40;;;;;;;4.23;2.23;;;15.70;99.90;;;;;;5033227;28;20916;-42
2022/10/24 08:59:11;;;;;;;5.40;2.80;;;15.80;99.90;;;;;;5033660;28;20589;-41
2022/10/24 09:01:44;;;;;;;4.83;2.80;;;15.80;99.90;;;;;;5023187;28;20247;-43
2022/10/24 09:04:16;;;;;;;7.83;2.40;;;15.80;99.90;;;;;;5019702;28;20210;-41
2022/10/24 09:06:43;;;;;;;6.80;2.77;;;15.90;99.90;;;;;;5026155;28;20198;-45
2022/10/24 09:09:18;;;;;;;6.63;1.80;;;16.00;99.90;;;;;;5038872;28;20214;-45
2022/10/24 09:11:50;;;;;;;3.63;2.30;;;16.10;99.90;;;;;;5035616;28;20823;-41
2022/10/24 09:14:19;;;;;;;7.43;3.00;;;16.10;99.90;;;;;;5038690;28;20257;-42
2022/10/24 09:16:53;;;;;;;8.57;2.23;;;16.20;99.90;;;;;;5023234;28;20203;-41
2022/10/24 09:19:23;;;;;;;7.17;2.63;;;16.10;99.90;;;;;;5013681;28;20746;-42
2022/10/24 09:21:51;;;;;;;3.13;2.63;;;16.20;99.90;;;;;;5029833;28;21784;-44
2022/10/24 09:24:28;;;;;;;7.17;2.40;;;16.30;99.90;;;;;;5030152;28;20199;-43
2022/10/24 09:26:59;;;;;;;7.13;1.60;;;16.40;99.90;;;;;;5035295;28;20768;-41
2022/10/24 09:29:29;;;;;;;3.93;1.70;;;16.40;99.90;;;;;;5029390;28;20206;-45
2022/10/24 09:31:58;;;;;;;5.53;2.33;;;16.50;99.90;;;;;;5034669;28;20245;-46
2022/10/24 09:34:26;;;;;;;5.03;1.90;;;16.50;99.90;;;;;;5021240;28;20207;-41
2022/10/24 09:36:53;;;;;;;5.90;2.10;;;;;;;;;;5024143;28;20215;-42
2022/10/24 09:39:26;;;;;;;3.47;1.70;;;16.70;99.90;;;;;;5034270;28;20582;-41
2022/10/24 09:41:53;;;;;;;3.93;1.87;;;16.90;99.90;;;;;;5025882;28;20462;-42
2022/10/24 09:44:42;;;;;;;5.30;1.90;;;17.00;99.90;;;;;;5038846;28;20195;-45
2022/10/24 09:47:24;;;;;;;5.33;2.03;;;17.10;99.90;;;;;;5029271;28;20219;-42
2022/10/24 09:49:52;;;;;;;5.63;1.50;;;17.20;99.90;;;;;;5021309;28;21159;-42
2022/10/24 09:52:21;;;;;;;3.23;1.70;;;17.20;99.90;;;;;;5036006;28;20215;-43
2022/10/24 09:55:05;;;;;;;8.13;3.50;;;17.30;99.90;;;;;;5033104;28;20206;-42
2022/10/24 09:57:39;;;;;;;6.93;1.67;;;17.30;99.90;;;;;;5034051;28;20584;-43
2022/10/24 10:00:19;;;;;;;4.30;1.63;;;17.30;99.90;;;;;;5036857;28;20248;-47
2022/10/24 10:03:04;;;;;;;2.90;1.63;;;17.30;99.90;;;;;;5031822;28;22248;-44
2022/10/24 10:05:44;;;;;;;3.83;1.60;;;17.40;99.90;;;;;;5018195;28;20210;-43
2022/10/24 10:08:16;;;;;;;7.17;1.80;;;17.40;99.90;;;;;;5028603;28;20207;-42
2022/10/24 10:10:43;;;;;;;6.30;2.27;;;17.40;99.90;;;;;;5035563;28;20191;-42
2022/10/24 10:13:23;;;;;;;4.13;1.87;;;17.50;99.90;;;;;;5038784;28;20195;-45
2022/10/24 10:15:52;;;;;;;4.20;2.33;;;17.60;99.90;;;;;;5033924;28;20203;-45
2022/10/24 10:18:29;;;;;;;5.77;1.93;;;17.70;99.90;;;;;;5028680;28;20246;-42
2022/10/24 10:21:06;;;;;;;6.10;2.20;;;17.80;99.90;;;;;;5012509;28;20930;-41
2022/10/24 10:23:36;;;;;;;2.10;1.40;;;17.90;99.90;;;;;;5020812;28;20265;-44
2022/10/24 10:26:14;;;;;;;5.00;1.90;;;18.00;99.90;;;;;;5040889;28;20193;-43
2022/10/24 10:28:53;;;;;;;3.13;1.97;;;18.00;99.90;;;;;;5029398;28;20207;-41
2022/10/24 10:31:23;;;;;;;6.20;1.77;;;18.10;99.90;;;;;;5029818;28;20315;-41
2022/10/24 10:34:07;;;;;;;4.53;1.70;;;18.10;99.90;;;;;;5027669;28;20218;-42
2022/10/24 10:36:41;;;;;;;4.53;1.70;;;18.20;99.90;;;;;;5012995;28;20815;-46
2022/10/24 10:39:24;;;;;;;5.00;1.40;;;18.30;99.90;;;;;;5034654;28;20209;-42
2022/10/24 10:41:58;;;;;;;4.50;2.00;;;18.30;99.90;;;;;;5040066;28;20215;-43
2022/10/24 10:44:47;;;;;;;4.67;1.80;;;18.30;99.90;;;;;;5038401;28;20203;-41
2022/10/24 10:47:33;;;;;;;4.03;2.07;;;18.40;99.90;;;;;;5036499;28;20200;-42
2022/10/24 10:50:14;;;;;;;3.77;1.87;;;18.40;99.90;;;;;;5028751;28;20207;-42
2022/10/24 10:52:47;;;;;;;3.90;2.27;;;18.40;99.90;;;;;;5021749;28;20798;-45
2022/10/24 10:55:26;;;;;;;4.10;1.73;;;18.40;99.90;;;;;;5033104;28;20284;-42
2022/10/24 10:57:57;;;;;;;6.53;1.53;;;18.40;99.90;;;;;;5041029;28;20190;-42
2022/10/24 11:00:34;;;;;;;3.00;1.97;;;18.40;99.90;;;;;;5035655;28;20275;-42
2022/10/24 11:03:16;;;;;;;7.00;2.43;;;18.40;99.90;;;;;;5036245;28;20215;-46
2022/10/24 11:05:56;;;;;;;6.27;2.87;;;18.30;99.90;;;;;;5033346;28;20304;-44
2022/10/24 11:08:41;;;;;;;6.37;2.00;;;18.20;99.90;;;;;;5023590;28;20269;-41
2022/10/24 11:11:12;;;;;;;5.97;2.10;;;18.20;99.90;;;;;;5040336;28;20222;-43
2022/10/24 11:13:43;;;;;;;4.37;2.43;;;18.10;99.90;;;;;;5032938;28;20274;-42
2022/10/24 11:16:16;;;;;;;6.93;2.57;;;18.10;99.90;;;;;;5041629;28;20204;-42
2022/10/24 11:18:47;;;;;;;6.70;1.87;;;18.10;99.90;;;;;;5039818;28;20929;-45
2022/10/24 11:21:16;;;;;;;5.93;1.87;;;18.10;99.90;;;;;;5037558;28;20237;-41
2022/10/24 11:23:49;;;;;;;5.23;1.67;;;18.10;99.90;;;;;;5043290;28;20226;-45
2022/10/24 11:26:21;;;;;;;6.83;1.83;;;18.10;99.90;;;;;;5028341;28;20214;-42
2022/10/24 11:28:55;;;;;;;4.10;1.60;;;18.10;99.90;;;;;;5043798;28;20199;-46
2022/10/24 11:31:25;;;;;;;5.10;1.83;;;18.10;99.90;;;;;;5043176;28;20226;-43
2022/10/24 11:33:58;;;;;;;6.10;1.63;;;18.10;99.90;;;;;;5043770;28;20284;-42
2022/10/24 11:36:34;;;;;;;3.70;2.20;;;18.20;99.90;;;;;;5036361;28;20202;-41
2022/10/24 11:39:06;;;;;;;5.50;1.27;;;18.30;99.90;;;;;;5043211;28;20214;-42
2022/10/24 11:41:39;;;;;;;3.50;1.50;;;18.40;99.90;;;;;;5025319;28;20218;-44
2022/10/24 11:44:18;;;;;;;3.63;1.43;;;18.60;99.90;;;;;;5045309;28;20695;-41
2022/10/24 11:46:51;;;;;;;2.93;1.60;;;18.70;99.90;;;;;;5044073;28;20222;-43
2022/10/24 11:49:22;;;;;;;1.87;1.20;;;18.70;99.90;;;;;;5044138;28;20223;-42
2022/10/24 11:51:56;;;;;;;5.70;1.90;;;18.70;99.90;;;;;;5038218;28;20223;-42
2022/10/24 11:54:28;;;;;;;5.83;2.00;;;18.70;99.90;;;;;;5041470;28;20195;-42
2022/10/24 11:57:00;;;;;;;2.70;1.20;;;18.70;99.90;;;;;;5029712;28;20207;-43
2022/10/24 11:59:29;;;;;;;6.13;1.47;;;18.70;99.90;;;;;;5034511;28;20195;-41
2022/10/24 12:02:35;;;;;;;2.87;1.10;;;18.70;99.90;;;;;;5039712;28;20603;-45
2022/10/24 12:05:23;;;;;;;4.37;1.50;;;18.80;99.90;;;;;;5036745;28;20265;-44
2022/10/24 12:08:20;;;;;;;3.17;1.20;;;18.80;99.90;;;;;;5035373;28;20204;-42
2022/10/24 12:11:07;;;;;;;4.83;2.10;;;18.80;99.90;;;;;;5043146;28;20203;-43
2022/10/24 12:14:02;;;;;;;5.83;2.17;;;18.80;99.90;;;;;;5026230;28;20203;-44
2022/10/24 12:16:43;;;;;;;3.93;1.30;;;18.70;99.90;;;;;;5040801;28;20199;-42
2022/10/24 12:19:13;;;;;;;3.43;1.40;;;18.70;99.90;;;;;;5037600;28;20211;-42
2022/10/24 12:21:45;;;;;;;4.20;2.07;;;18.60;99.90;;;;;;5043064;28;20219;-44
2022/10/24 12:24:24;;;;;;;3.83;1.43;;;18.60;99.90;;;;;;5036034;28;20249;-42
2022/10/24 12:26:56;;;;;;;2.57;1.53;;;18.50;99.90;;;;;;5028819;28;20683;-42
2022/10/24 12:29:26;;;;;;;3.03;1.37;;;18.50;99.90;;;;;;5039624;28;20273;-42
2022/10/24 12:31:53;;;;;;;3.87;1.70;;;18.50;99.90;;;;;;5043127;28;20231;-41
2022/10/24 12:34:42;;;;;;;3.80;1.57;;;18.50;99.90;;;;;;5042223;28;20542;-43
2022/10/24 12:37:13;;;;;;;3.63;1.10;;;18.50;99.90;;;;;;5042234;28;20204;-44
2022/10/24 12:39:44;;;;;;;2.33;1.30;;;18.50;99.90;;;;;;5033532;28;20195;-43
2022/10/24 12:42:17;;;;;;;4.83;1.40;;;18.50;99.90;;;;;;5039667;28;20217;-42
2022/10/24 12:44:46;;;;;;;4.70;1.27;;;18.40;99.90;;;;;;5035561;28;20226;-44
2022/10/24 12:47:37;;;;;;;0.97;0.87;;;18.40;99.90;;;;;;5043445;28;20199;-41
2022/10/24 12:50:42;;;;;;;3.33;1.10;;;18.50;99.90;;;;;;5044414;28;20195;-41
2022/10/24 12:53:32;;;;;;;5.23;1.27;;;18.60;99.90;;;;;;5037908;28;20206;-41
2022/10/24 12:56:18;;;;;;;2.17;1.30;;;18.50;99.90;;;;;;5033709;28;20222;-41
2022/10/24 12:59:19;;;;;;;1.77;0.90;;;18.50;99.90;;;;;;5025528;28;20933;-42
2022/10/24 13:01:47;;;;;;;4.13;0.83;;;18.40;99.90;;;;;;5017514;28;20817;-41
2022/10/24 13:04:50;;;;;;;4.63;1.10;;;18.30;99.90;;;;;;5041209;28;20222;-42
2022/10/24 13:07:53;;;;;;;2.97;1.40;;;18.30;99.90;;;;;;5040145;28;20607;-41